Time;durP1;ratioP1;P1;durP2;ratioP2;P2;SDS_P1;SDS_P2;PMS_P1;PMS_P2;Temp;Humidity;BMP_temperature;BMP_pressure;BME280_temperature;BME280_humidity;BME280_pressure;Samples;Min_cycle;Max_cycle;Signal;HPM_P1;HPM_P2
2023/01/23 00:02:52;;;;;;;;;;;;;;;19.29;29.11;96608.56;10416800;28;3204;-49
2023/01/23 00:07:52;;;;;;;;;;;;;;;19.25;29.06;96612.72;10422081;28;2876;-52
2023/01/23 00:12:53;;;;;;;;;;;;;;;19.21;29.04;96620.31;10423012;28;2904;-47
2023/01/23 00:17:53;;;;;;;;;;;;;;;19.19;29.09;96626.84;10414286;28;2912;-54
2023/01/23 00:22:54;;;;;;;;;;;;;;;19.14;29.10;96624.97;10418892;28;3297;-51
2023/01/23 00:27:54;;;;;;;;;;;;;;;19.11;29.11;96635.16;10415143;28;2791;-50
2023/01/23 00:32:54;;;;;;;;;;;;;;;19.07;29.13;96629.59;10416783;28;2896;-50
2023/01/23 00:37:55;;;;;;;;;;;;;;;19.03;29.07;96620.59;10417038;28;2824;-49
2023/01/23 00:42:55;;;;;;;;;;;;;;;19.02;29.02;96626.88;10422428;28;3480;-51
2023/01/23 00:47:55;;;;;;;;;;;;;;;19.00;28.87;96628.19;10417046;28;2838;-51
2023/01/23 00:52:55;;;;;;;;;;;;;;;18.96;28.97;96638.34;10421949;28;2895;-47
2023/01/23 00:57:56;;;;;;;;;;;;;;;18.96;28.83;96637.59;10422166;28;2883;-48
2023/01/23 01:02:56;;;;;;;;;;;;;;;18.93;28.76;96648.56;10422831;28;2870;-48
2023/01/23 01:07:56;;;;;;;;;;;;;;;18.92;28.59;96657.50;10416267;28;2926;-50
2023/01/23 01:12:56;;;;;;;;;;;;;;;18.90;28.70;96655.09;10422195;28;2894;-48
2023/01/23 01:17:57;;;;;;;;;;;;;;;18.89;28.50;96666.66;10430896;28;2894;-49
2023/01/23 01:22:57;;;;;;;;;;;;;;;18.88;28.64;96658.97;10423842;28;3358;-49
2023/01/23 01:27:58;;;;;;;;;;;;;;;18.88;28.55;96672.13;10426467;28;2975;-48
2023/01/23 01:32:58;;;;;;;;;;;;;;;18.87;28.45;96666.09;10419215;28;2781;-52
2023/01/23 01:37:58;;;;;;;;;;;;;;;18.87;28.52;96663.47;10425454;28;3003;-50
2023/01/23 01:42:59;;;;;;;;;;;;;;;18.86;28.50;96659.22;10424670;28;3263;-51
2023/01/23 01:48:00;;;;;;;;;;;;;;;18.83;28.43;96636.09;10426556;28;2804;-49
2023/01/23 01:53:00;;;;;;;;;;;;;;;18.85;28.42;96641.09;10432382;28;2902;-49
2023/01/23 01:58:00;;;;;;;;;;;;;;;18.85;28.44;96630.59;10431798;28;2956;-50
2023/01/23 02:03:02;;;;;;;;;;;;;;;18.83;28.33;96636.09;10432844;28;2806;-49
2023/01/23 02:08:09;;;;;;;;;;;;;;;18.83;28.29;96632.66;10422194;28;2856;-53
2023/01/23 02:13:18;;;;;;;;;;;;;;;18.82;28.18;96626.59;10421256;28;2852;-49
2023/01/23 02:18:19;;;;;;;;;;;;;;;18.81;28.27;96625.03;10428436;28;2926;-49
2023/01/23 02:23:28;;;;;;;;;;;;;;;18.81;28.16;96619.78;10419418;28;2926;-52
2023/01/23 02:28:39;;;;;;;;;;;;;;;18.81;28.11;96608.47;10429541;28;2971;-52
2023/01/23 02:33:39;;;;;;;;;;;;;;;18.83;28.16;96620.31;10416105;28;2839;-54
2023/01/23 02:38:53;;;;;;;;;;;;;;;18.82;28.12;96616.09;10422156;28;2891;-50
2023/01/23 02:43:53;;;;;;;;;;;;;;;18.82;28.23;96616.09;10421648;28;2883;-48
2023/01/23 02:48:53;;;;;;;;;;;;;;;18.81;28.10;96598.75;10424082;28;2879;-51
2023/01/23 02:53:54;;;;;;;;;;;;;;;18.83;28.07;96609.03;10430089;28;2829;-48
2023/01/23 03:04:13;;;;;;;;;;;;;;;18.83;27.92;96624.78;10422108;28;2905;-50
2023/01/23 03:09:14;;;;;;;;;;;;;;;18.83;27.95;96630.03;10414997;28;2827;-48
2023/01/23 03:14:16;;;;;;;;;;;;;;;18.80;27.88;96639.19;10418200;28;2846;-51
2023/01/23 03:19:17;;;;;;;;;;;;;;;18.81;27.86;96640.78;10419770;28;2944;-49
2023/01/23 03:24:17;;;;;;;;;;;;;;;18.80;27.81;96639.19;10414945;28;2882;-48
2023/01/23 03:34:42;;;;;;;;;;;;;;;18.78;27.82;96630.75;10418549;28;2796;-47
2023/01/23 03:45:02;;;;;;;;;;;;;;;18.77;27.73;96631.00;10428329;28;3006;-49
2023/01/23 03:50:02;;;;;;;;;;;;;;;18.76;27.77;96630.19;10417279;28;2825;-47
2023/01/23 03:55:03;;;;;;;;;;;;;;;18.75;27.68;96633.88;10416814;28;2910;-50
2023/01/23 04:00:03;;;;;;;;;;;;;;;18.73;27.68;96635.13;10414333;28;2882;-51
2023/01/23 04:05:04;;;;;;;;;;;;;;;18.72;27.85;96636.97;10454343;28;2804;-48
2023/01/23 04:10:04;;;;;;;;;;;;;;;18.73;27.75;96643.81;10412511;28;2996;-48
2023/01/23 04:15:04;;;;;;;;;;;;;;;18.72;27.79;96659.78;10419560;28;2917;-49
2023/01/23 04:20:05;;;;;;;;;;;;;;;18.69;27.72;96651.38;10422523;28;2876;-49
2023/01/23 04:25:06;;;;;;;;;;;;;;;18.69;27.61;96656.63;10424910;28;2887;-49
2023/01/23 04:30:06;;;;;;;;;;;;;;;18.67;27.52;96656.06;10424727;28;2911;-50
2023/01/23 04:35:06;;;;;;;;;;;;;;;18.66;27.58;96659.75;10419438;28;2920;-51
2023/01/23 04:40:09;;;;;;;;;;;;;;;18.65;27.57;96650.25;10423159;28;2899;-48
2023/01/23 04:45:09;;;;;;;;;;;;;;;18.66;27.53;96654.47;10433969;28;2891;-52
2023/01/23 04:50:09;;;;;;;;;;;;;;;18.64;27.52;96650.50;10422134;28;2898;-48
2023/01/23 04:55:10;;;;;;;;;;;;;;;18.63;27.44;96659.41;10424830;28;2870;-47
2023/01/23 05:00:10;;;;;;;;;;;;;;;18.63;27.66;96656.78;10430589;28;2983;-49
2023/01/23 05:05:11;;;;;;;;;;;;;;;18.62;27.53;96657.81;10431829;28;2878;-51
2023/01/23 05:10:11;;;;;;;;;;;;;;;18.59;27.59;96656.47;10427579;28;2945;-47
2023/01/23 05:15:12;;;;;;;;;;;;;;;18.61;27.54;96654.41;10420600;28;2941;-51
2023/01/23 05:20:12;;;;;;;;;;;;;;;18.65;27.34;96655.50;10419373;28;2903;-49
2023/01/23 05:25:12;;;;;;;;;;;;;;;18.71;27.40;96666.91;10426522;28;2882;-48
2023/01/23 05:30:12;;;;;;;;;;;;;;;18.77;27.25;96679.06;10434558;28;2868;-48
2023/01/23 05:35:13;;;;;;;;;;;;;;;18.85;27.24;96698.88;10459307;28;2912;-53
2023/01/23 05:40:13;;;;;;;;;;;;;;;18.90;27.08;96691.09;10417474;28;2852;-49
2023/01/23 05:45:13;;;;;;;;;;;;;;;18.94;27.06;96692.22;10420853;28;2895;-48
2023/01/23 05:50:15;;;;;;;;;;;;;;;18.98;27.13;96688.84;10416564;28;2946;-51
2023/01/23 05:55:15;;;;;;;;;;;;;;;19.01;27.07;96688.38;10416704;28;2927;-46
2023/01/23 06:00:15;;;;;;;;;;;;;;;19.05;26.94;96686.84;10419210;28;2823;-50
2023/01/23 06:05:16;;;;;;;;;;;;;;;19.09;26.88;96676.63;10411719;28;2819;-50
2023/01/23 06:10:16;;;;;;;;;;;;;;;19.12;27.10;96673.53;10418596;28;2870;-49
2023/01/23 06:15:16;;;;;;;;;;;;;;;19.14;26.84;96688.03;10422982;28;2844;-48
2023/01/23 06:20:17;;;;;;;;;;;;;;;19.18;26.85;96693.59;10421320;28;2898;-50
2023/01/23 06:25:19;;;;;;;;;;;;;;;19.18;26.94;96702.28;10421637;28;2811;-49
2023/01/23 06:30:19;;;;;;;;;;;;;;;19.22;26.93;96708.66;10430629;28;2876;-47
2023/01/23 06:35:20;;;;;;;;;;;;;;;19.25;26.94;96702.09;10417965;28;2851;-52
2023/01/23 06:40:20;;;;;;;;;;;;;;;19.26;26.80;96688.72;10424262;28;2974;-49
2023/01/23 06:45:20;;;;;;;;;;;;;;;19.29;26.90;96682.16;10418120;28;2875;-49
2023/01/23 06:50:20;;;;;;;;;;;;;;;19.31;26.90;96678.25;10425826;28;2891;-47
2023/01/23 06:55:21;;;;;;;;;;;;;;;19.34;26.94;96683.09;10423933;28;2847;-51
2023/01/23 07:00:21;;;;;;;;;;;;;;;19.37;26.75;96684.44;10418534;28;2960;-50
2023/01/23 07:05:21;;;;;;;;;;;;;;;19.39;26.71;96701.53;10424110;28;2883;-47
2023/01/23 07:10:22;;;;;;;;;;;;;;;19.40;26.80;96711.03;10420237;28;2807;-50
2023/01/23 07:15:22;;;;;;;;;;;;;;;19.42;26.81;96708.16;10418482;28;2940;-49
2023/01/23 07:20:26;;;;;;;;;;;;;;;19.44;26.89;96727.91;10419982;28;2823;-51
2023/01/23 07:25:27;;;;;;;;;;;;;;;19.46;26.82;96730.28;10423240;28;2895;-50
2023/01/23 07:30:28;;;;;;;;;;;;;;;19.48;26.72;96733.47;10431480;28;2811;-50
2023/01/23 07:35:29;;;;;;;;;;;;;;;19.49;26.92;96735.84;10421468;28;2848;-49
2023/01/23 07:40:29;;;;;;;;;;;;;;;19.52;26.81;96725.88;10412202;28;2915;-46
2023/01/23 07:45:29;;;;;;;;;;;;;;;19.52;26.87;96710.09;10419845;28;2871;-47
2023/01/23 07:50:30;;;;;;;;;;;;;;;19.54;26.97;96716.72;10418371;28;2879;-47
2023/01/23 07:55:30;;;;;;;;;;;;;;;19.57;26.77;96736.50;10418233;28;2839;-49
2023/01/23 08:00:30;;;;;;;;;;;;;;;19.56;26.93;96738.31;10422880;28;2894;-47
2023/01/23 08:05:30;;;;;;;;;;;;;;;19.60;26.70;96738.66;10420120;28;2936;-49
2023/01/23 08:10:31;;;;;;;;;;;;;;;19.60;26.90;96742.03;10423787;28;2994;-49
2023/01/23 08:15:31;;;;;;;;;;;;;;;19.58;26.74;96738.88;10433183;28;2866;-49
2023/01/23 08:20:31;;;;;;;;;;;;;;;19.58;26.94;96725.72;10428686;28;3052;-49
2023/01/23 08:25:31;;;;;;;;;;;;;;;19.57;26.89;96739.13;10425600;28;2900;-51
2023/01/23 08:30:32;;;;;;;;;;;;;;;19.55;26.78;96722.78;10419445;28;2860;-47
2023/01/23 08:35:32;;;;;;;;;;;;;;;19.54;26.81;96745.66;10424391;28;2867;-51
2023/01/23 08:40:32;;;;;;;;;;;;;;;19.53;26.75;96751.97;10428438;28;2895;-47
2023/01/23 08:45:32;;;;;;;;;;;;;;;19.52;26.75;96752.19;10428354;28;2876;-50
2023/01/23 08:50:33;;;;;;;;;;;;;;;19.51;26.84;96729.56;10434774;28;2860;-49
2023/01/23 08:55:34;;;;;;;;;;;;;;;19.52;26.77;96725.88;10428780;28;2847;-51
2023/01/23 09:00:35;;;;;;;;;;;;;;;19.54;26.72;96739.63;10424609;28;2909;-51
2023/01/23 09:05:35;;;;;;;;;;;;;;;19.56;26.88;96753.31;10429421;28;2898;-51
2023/01/23 09:10:35;;;;;;;;;;;;;;;19.55;26.86;96743.81;10419413;28;2829;-47
2023/01/23 09:15:38;;;;;;;;;;;;;;;19.56;26.77;96754.09;10434301;28;2899;-50
2023/01/23 09:20:39;;;;;;;;;;;;;;;19.58;26.74;96756.50;10425026;28;2894;-47
2023/01/23 09:25:39;;;;;;;;;;;;;;;19.58;26.81;96757.28;10426051;28;2895;-47
2023/01/23 09:30:39;;;;;;;;;;;;;;;19.58;26.81;96740.72;10427256;28;2836;-47
2023/01/23 09:35:39;;;;;;;;;;;;;;;19.61;26.88;96742.84;10412437;28;2950;-49
2023/01/23 09:40:52;;;;;;;;;;;;;;;19.60;26.77;96731.53;10422020;28;2839;-46
2023/01/23 09:46:11;;;;;;;;;;;;;;;19.62;26.73;96724.19;10443760;28;3029;-47
2023/01/23 09:51:14;;;;;;;;;;;;;;;19.63;26.91;96743.41;10425198;28;2935;-49
2023/01/23 09:56:26;;;;;;;;;;;;;;;19.63;26.85;96736.31;10421913;28;2880;-46
2023/01/23 10:01:27;;;;;;;;;;;;;;;19.65;26.76;96736.06;10425560;28;2971;-46
2023/01/23 10:06:28;;;;;;;;;;;;;;;19.65;26.76;96731.59;10434829;28;2949;-46
2023/01/23 10:11:31;;;;;;;;;;;;;;;19.64;26.85;96734.50;10413053;28;2885;-46
2023/01/23 10:16:51;;;;;;;;;;;;;;;19.63;26.66;96728.44;10431532;28;2785;-48
2023/01/23 10:21:57;;;;;;;;;;;;;;;19.61;26.90;96719.97;10420893;28;3126;-46
2023/01/23 10:27:02;;;;;;;;;;;;;;;19.63;26.73;96720.53;10425685;28;2899;-47
2023/01/23 10:32:05;;;;;;;;;;;;;;;19.62;26.68;96715.53;10417463;28;2988;-51
2023/01/23 10:37:23;;;;;;;;;;;;;;;19.59;26.93;96705.47;10421810;28;2884;-49
2023/01/23 10:42:24;;;;;;;;;;;;;;;19.59;26.98;96716.00;10421222;28;2929;-47
2023/01/23 10:47:33;;;;;;;;;;;;;;;19.57;27.02;96708.34;10421212;28;2848;-48
2023/01/23 10:52:43;;;;;;;;;;;;;;;19.58;26.91;96703.91;10420991;28;2915;-47
2023/01/23 10:57:45;;;;;;;;;;;;;;;19.59;26.87;96700.22;10430355;28;2959;-48
2023/01/23 11:02:45;;;;;;;;;;;;;;;19.59;26.80;96690.50;10422825;28;2867;-48
2023/01/23 11:07:46;;;;;;;;;;;;;;;19.63;26.97;96681.09;10415530;28;2872;-47
2023/01/23 11:12:53;;;;;;;;;;;;;;;19.61;27.07;96675.28;10418831;28;2857;-47
2023/01/23 11:17:57;;;;;;;;;;;;;;;19.64;26.91;96666.09;10426413;28;2904;-46
2023/01/23 11:23:16;;;;;;;;;;;;;;;19.65;26.93;96663.22;10422838;28;3193;-46
2023/01/23 11:28:25;;;;;;;;;;;;;;;19.67;26.96;96655.88;10437672;28;3221;-48
2023/01/23 11:33:35;;;;;;;;;;;;;;;19.69;26.89;96650.38;10417819;28;3198;-46
2023/01/23 11:38:37;;;;;;;;;;;;;;;19.71;26.92;96650.91;10427583;28;3177;-48
2023/01/23 11:43:37;;;;;;;;;;;;;;;19.73;26.68;96643.56;10416147;28;3213;-46
2023/01/23 11:48:44;;;;;;;;;;;;;;;19.75;27.36;96636.22;10414762;28;3106;-47
2023/01/23 11:53:50;;;;;;;;;;;;;;;19.76;27.28;96641.25;10425790;28;3129;-49
2023/01/23 11:58:56;;;;;;;;;;;;;;;19.78;27.35;96636.53;10428105;28;3105;-50
2023/01/23 12:04:02;;;;;;;;;;;;;;;19.78;27.58;96633.91;10422502;28;3157;-46
2023/01/23 12:09:13;;;;;;;;;;;;;;;19.81;27.44;96622.06;10426563;28;3381;-47
2023/01/23 12:14:13;;;;;;;;;;;;;;;19.81;27.45;96619.44;10427854;28;3046;-46
2023/01/23 12:19:20;;;;;;;;;;;;;;;19.79;27.45;96614.44;10411190;28;3095;-46
2023/01/23 12:24:39;;;;;;;;;;;;;;;19.79;27.42;96605.75;10417524;28;3190;-48
2023/01/23 12:29:42;;;;;;;;;;;;;;;19.78;27.22;96609.44;10422349;28;3225;-47
2023/01/23 12:34:48;;;;;;;;;;;;;;;19.77;27.52;96603.38;10413022;28;3256;-48
2023/01/23 12:40:08;;;;;;;;;;;;;;;19.76;27.23;96599.16;10415606;28;3145;-48
2023/01/23 12:45:14;;;;;;;;;;;;;;;19.75;27.32;96591.50;10414971;28;3137;-47
2023/01/23 12:50:33;;;;;;;;;;;;;;;19.73;27.36;96594.38;10408745;28;3099;-49
2023/01/23 12:55:35;;;;;;;;;;;;;;;19.74;27.10;96593.34;10422668;28;3158;-49
2023/01/23 13:00:38;;;;;;;;;;;;;;;19.72;27.17;96595.41;10425605;28;3171;-47
2023/01/23 13:05:38;;;;;;;;;;;;;;;19.73;27.25;96590.97;10418749;28;3198;-46
2023/01/23 13:16:16;;;;;;;;;;;;;;;19.73;27.15;96590.97;10416809;28;3157;-47
2023/01/23 13:26:35;;;;;;;;;;;;;;;19.72;27.30;96602.53;10423688;28;3119;-48
2023/01/23 13:31:39;;;;;;;;;;;;;;;19.71;27.09;96608.81;10419455;28;3169;-51
2023/01/23 13:36:39;;;;;;;;;;;;;;;19.69;27.20;96609.06;10423739;28;3113;-47
2023/01/23 13:41:39;;;;;;;;;;;;;;;19.70;27.11;96615.13;10425116;28;3215;-47
2023/01/23 13:46:58;;;;;;;;;;;;;;;19.69;27.12;96616.16;10425158;28;3125;-47
2023/01/23 13:51:58;;;;;;;;;;;;;;;19.67;27.17;96605.91;10440645;28;3130;-47
2023/01/23 13:56:59;;;;;;;;;;;;;;;19.68;27.00;96598.81;10431875;28;3176;-49
2023/01/23 14:07:43;;;;;;;;;;;;;;;19.67;26.99;96610.34;10418530;28;3165;-48
2023/01/23 14:12:44;;;;;;;;;;;;;;;19.65;26.99;96609.81;10413904;28;3185;-49
2023/01/23 14:17:45;;;;;;;;;;;;;;;19.65;27.10;96607.97;10421910;28;3119;-46
2023/01/23 14:22:46;;;;;;;;;;;;;;;19.65;27.05;96600.09;10426091;28;3158;-47
2023/01/23 14:27:46;;;;;;;;;;;;;;;19.65;27.04;96592.19;10418682;28;3221;-48
2023/01/23 14:32:46;;;;;;;;;;;;;;;19.66;26.96;96598.25;10418361;28;3214;-48
2023/01/23 14:37:46;;;;;;;;;;;;;;;19.66;27.00;96591.16;10421704;28;3173;-46
2023/01/23 14:43:03;;;;;;;;;;;;;;;19.64;27.04;96589.81;10415953;28;3097;-45
2023/01/23 14:48:03;;;;;;;;;;;;;;;19.67;27.05;96592.75;10415565;28;3118;-45
2023/01/23 14:53:05;;;;;;;;;;;;;;;19.70;27.16;96596.72;10409552;28;3150;-47
2023/01/23 14:58:06;;;;;;;;;;;;;;;19.74;26.80;96595.19;10414004;28;3157;-47
2023/01/23 15:03:09;;;;;;;;;;;;;;;19.74;27.00;96592.56;10431051;28;3077;-45
2023/01/23 15:08:19;;;;;;;;;;;;;;;19.77;26.83;96597.31;10421489;28;3114;-45
2023/01/23 15:13:28;;;;;;;;;;;;;;;19.78;27.08;96596.28;10419901;28;3186;-47
2023/01/23 15:18:28;;;;;;;;;;;;;;;19.81;26.94;96601.84;10424000;28;3240;-47
2023/01/23 15:23:30;;;;;;;;;;;;;;;19.82;26.97;96610.53;10444919;28;3183;-50
2023/01/23 15:28:31;;;;;;;;;;;;;;;19.84;26.97;96605.81;10412764;28;3145;-45
2023/01/23 15:33:33;;;;;;;;;;;;;;;19.85;26.88;96607.38;10418338;28;3245;-45
2023/01/23 15:38:33;;;;;;;;;;;;;;;19.84;26.82;96606.63;10420908;28;3173;-46
2023/01/23 15:43:34;;;;;;;;;;;;;;;19.87;26.95;96613.19;10417737;28;3156;-46
2023/01/23 15:48:34;;;;;;;;;;;;;;;19.88;26.98;96610.34;10411825;28;3211;-46
2023/01/23 15:53:34;;;;;;;;;;;;;;;19.89;26.94;96616.38;10412516;28;3201;-46
2023/01/23 15:58:34;;;;;;;;;;;;;;;19.91;26.84;96622.19;10416609;28;3090;-47
2023/01/23 16:03:35;;;;;;;;;;;;;;;19.94;26.99;96619.88;10435577;28;3209;-48
2023/01/23 16:08:35;;;;;;;;;;;;;;;19.96;27.01;96630.13;10434858;28;3125;-50
2023/01/23 16:13:35;;;;;;;;;;;;;;;20.00;27.00;96628.59;10432151;28;3154;-47
2023/01/23 16:18:35;;;;;;;;;;;;;;;20.00;27.06;96636.50;10431366;28;3143;-47
2023/01/23 16:23:36;;;;;;;;;;;;;;;20.04;27.07;96641.03;10431178;28;3227;-47
2023/01/23 16:28:36;;;;;;;;;;;;;;;20.06;27.12;96638.94;10429184;28;3170;-46
2023/01/23 16:33:36;;;;;;;;;;;;;;;20.08;27.20;96641.31;10434938;28;3358;-46
2023/01/23 16:38:36;;;;;;;;;;;;;;;20.10;27.25;96652.38;10436986;28;3156;-46
2023/01/23 16:43:37;;;;;;;;;;;;;;;20.11;27.35;96644.22;10438005;28;3134;-50
2023/01/23 16:48:37;;;;;;;;;;;;;;;20.14;27.14;96645.56;10454627;28;3223;-46
2023/01/23 16:53:39;;;;;;;;;;;;;;;20.13;26.96;96642.13;10419490;28;3131;-52
2023/01/23 16:58:39;;;;;;;;;;;;;;;20.11;27.04;96636.31;10433264;28;3228;-48
2023/01/23 17:03:40;;;;;;;;;;;;;;;20.11;27.23;96636.31;10416746;28;3154;-47
2023/01/23 17:08:40;;;;;;;;;;;;;;;20.12;27.03;96645.03;10419166;28;3054;-49
2023/01/23 17:13:40;;;;;;;;;;;;;;;20.11;27.15;96638.97;10421550;28;3294;-47
2023/01/23 17:18:41;;;;;;;;;;;;;;;20.10;27.07;96647.91;10441958;28;3496;-46
2023/01/23 17:23:41;;;;;;;;;;;;;;;20.09;27.09;96651.56;10419570;28;3279;-47
2023/01/23 17:28:41;;;;;;;;;;;;;;;20.07;27.17;96652.91;10419240;28;3144;-46
2023/01/23 17:33:41;;;;;;;;;;;;;;;20.08;27.16;96646.56;10421520;28;3306;-44
2023/01/23 17:38:42;;;;;;;;;;;;;;;20.09;27.04;96648.19;10425876;28;3194;-46
2023/01/23 17:43:43;;;;;;;;;;;;;;;20.09;27.08;96656.06;10422269;28;3137;-46
2023/01/23 17:48:43;;;;;;;;;;;;;;;20.07;27.06;96656.28;10422601;28;3115;-46
2023/01/23 17:53:44;;;;;;;;;;;;;;;20.08;27.03;96654.47;10417131;28;3146;-47
2023/01/23 17:58:44;;;;;;;;;;;;;;;20.06;26.95;96649.47;10414322;28;3161;-47
2023/01/23 18:03:45;;;;;;;;;;;;;;;20.06;27.04;96664.44;10419238;28;3180;-46
2023/01/23 18:08:45;;;;;;;;;;;;;;;20.07;26.94;96656.28;10412135;28;3142;-47
2023/01/23 18:14:04;;;;;;;;;;;;;;;20.05;27.09;96658.38;10412469;28;3149;-47
2023/01/23 18:19:25;;;;;;;;;;;;;;;20.08;27.05;96659.72;10426563;28;3173;-46
2023/01/23 18:24:31;;;;;;;;;;;;;;;20.07;26.94;96660.78;10411710;28;3126;-46
2023/01/23 18:29:50;;;;;;;;;;;;;;;20.08;26.74;96667.63;10412034;28;3161;-48
2023/01/23 18:34:56;;;;;;;;;;;;;;;20.09;26.98;96675.25;10414758;28;3228;-49
2023/01/23 18:40:03;;;;;;;;;;;;;;;20.09;27.24;96688.44;10419078;28;3152;-48
2023/01/23 18:45:07;;;;;;;;;;;;;;;20.12;26.98;96689.78;10438296;28;3187;-50
2023/01/23 18:50:10;;;;;;;;;;;;;;;20.13;27.25;96691.38;10428098;28;3312;-51
2023/01/23 18:55:16;;;;;;;;;;;;;;;20.15;27.17;96690.06;10427843;28;3162;-48
2023/01/23 19:00:18;;;;;;;;;;;;;;;20.15;27.42;96691.94;10417691;28;3158;-48
2023/01/23 19:05:19;;;;;;;;;;;;;;;20.16;27.29;96690.88;10422262;28;3254;-46
2023/01/23 19:10:20;;;;;;;;;;;;;;;20.17;27.37;96697.75;10426492;28;3233;-47
2023/01/23 19:15:21;;;;;;;;;;;;;;;20.18;27.50;96705.38;10424895;28;3126;-49
2023/01/23 19:20:23;;;;;;;;;;;;;;;20.17;27.55;96709.03;10434687;28;3118;-47
2023/01/23 19:25:23;;;;;;;;;;;;;;;20.18;27.78;96715.09;10417926;28;3159;-49
2023/01/23 19:30:25;;;;;;;;;;;;;;;20.20;27.47;96718.31;10423163;28;3178;-48
2023/01/23 19:35:25;;;;;;;;;;;;;;;20.20;27.37;96720.94;10424837;28;3090;-47
2023/01/23 19:40:26;;;;;;;;;;;;;;;20.21;27.57;96726.00;10415825;28;3152;-49
2023/01/23 19:45:26;;;;;;;;;;;;;;;20.21;27.67;96731.25;10422463;28;3126;-48
2023/01/23 19:50:27;;;;;;;;;;;;;;;20.22;27.50;96739.94;10422348;28;3467;-46
2023/01/23 19:55:29;;;;;;;;;;;;;;;20.23;27.76;96734.44;10418163;28;3123;-46
2023/01/23 20:00:30;;;;;;;;;;;;;;;20.20;27.41;96739.38;10420233;28;3181;-47
2023/01/23 20:05:30;;;;;;;;;;;;;;;20.20;27.73;96742.00;10416124;28;3149;-47
2023/01/23 20:10:31;;;;;;;;;;;;;;;20.20;27.82;96734.13;10431209;28;3464;-46
2023/01/23 20:15:32;;;;;;;;;;;;;;;20.16;27.62;96741.69;10426849;28;3248;-49
2023/01/23 20:20:32;;;;;;;;;;;;;;;20.15;27.70;96744.56;10433127;28;3118;-46
2023/01/23 20:25:33;;;;;;;;;;;;;;;20.18;27.85;96751.97;10422897;28;3162;-47
2023/01/23 20:30:33;;;;;;;;;;;;;;;20.14;27.60;96750.88;10430805;28;3559;-50
2023/01/23 20:35:37;;;;;;;;;;;;;;;20.10;27.72;96749.78;10430208;28;3142;-48
2023/01/23 20:40:37;;;;;;;;;;;;;;;20.07;27.73;96755.53;10423054;28;3170;-47
2023/01/23 20:45:47;;;;;;;;;;;;;;;20.01;27.76;96756.53;10430400;28;3142;-47
2023/01/23 20:50:54;;;;;;;;;;;;;;;19.94;27.58;96758.53;10432666;28;3073;-48
2023/01/23 20:55:56;;;;;;;;;;;;;;;19.91;27.60;96759.00;10435564;28;3190;-49
2023/01/23 21:00:56;;;;;;;;;;;;;;;19.86;27.48;96764.22;10433166;28;3106;-47
2023/01/23 21:05:56;;;;;;;;;;;;;;;19.78;27.55;96770.72;10433406;28;3288;-46
2023/01/23 21:10:57;;;;;;;;;;;;;;;19.71;27.76;96775.34;10433282;28;3138;-46
2023/01/23 21:16:01;;;;;;;;;;;;;;;19.69;27.82;96768.72;10432616;28;3301;-46
2023/01/23 21:21:02;;;;;;;;;;;;;;;19.65;27.85;96772.88;10434831;28;3099;-48
2023/01/23 21:26:02;;;;;;;;;;;;;;;19.60;27.89;96770.19;10409986;28;3188;-48
2023/01/23 21:31:09;;;;;;;;;;;;;;;19.54;27.76;96779.06;10422514;28;3087;-46
2023/01/23 21:36:10;;;;;;;;;;;;;;;19.48;27.89;96784.25;10424432;28;3070;-50
2023/01/23 21:41:10;;;;;;;;;;;;;;;19.44;27.93;96790.22;10428413;28;3220;-48
2023/01/23 21:46:10;;;;;;;;;;;;;;;19.39;27.73;96788.31;10429222;28;3203;-48
2023/01/23 21:51:14;;;;;;;;;;;;;;;19.35;27.77;96789.03;10420156;28;3137;-45
2023/01/23 21:56:15;;;;;;;;;;;;;;;19.30;27.89;96787.09;10410657;28;3162;-47
2023/01/23 22:01:31;;;;;;;;;;;;;;;19.24;27.86;96793.31;10411599;28;3337;-48
2023/01/23 22:06:31;;;;;;;;;;;;;;;19.21;27.93;96779.84;10414199;28;3292;-48
2023/01/23 22:11:32;;;;;;;;;;;;;;;19.18;27.89;96796.91;10418849;28;3251;-46
2023/01/23 22:16:32;;;;;;;;;;;;;;;19.10;28.03;96799.91;10434258;28;3173;-46
2023/01/23 22:21:33;;;;;;;;;;;;;;;19.08;28.02;96798.56;10429904;28;3110;-46
2023/01/23 22:26:33;;;;;;;;;;;;;;;19.03;28.02;96801.09;10428458;28;3529;-46
2023/01/23 22:31:33;;;;;;;;;;;;;;;18.97;28.01;96797.63;10427210;28;3119;-47
2023/01/23 22:36:33;;;;;;;;;;;;;;;18.95;27.97;96799.69;10430826;28;3189;-49
2023/01/23 22:41:34;;;;;;;;;;;;;;;18.93;28.08;96811.44;10427871;28;3104;-46
2023/01/23 22:46:34;;;;;;;;;;;;;;;18.87;28.12;96805.31;10426495;28;3176;-48
2023/01/23 22:51:34;;;;;;;;;;;;;;;18.83;28.07;96806.84;10423647;28;3134;-49
2023/01/23 22:56:34;;;;;;;;;;;;;;;18.80;28.10;96802.03;10424552;28;3156;-48
2023/01/23 23:01:35;;;;;;;;;;;;;;;18.76;28.07;96805.38;10424533;28;3142;-47
2023/01/23 23:06:35;;;;;;;;;;;;;;;18.71;28.21;96803.47;10424205;28;3164;-48
2023/01/23 23:11:36;;;;;;;;;;;;;;;18.68;28.15;96807.38;10427458;28;3294;-47
2023/01/23 23:16:36;;;;;;;;;;;;;;;18.65;28.23;96799.13;10425410;28;3154;-46
2023/01/23 23:21:36;;;;;;;;;;;;;;;18.61;28.18;96801.44;10425608;28;3102;-47
2023/01/23 23:26:37;;;;;;;;;;;;;;;18.59;28.28;96810.59;10428557;28;3181;-46
2023/01/23 23:31:37;;;;;;;;;;;;;;;18.55;28.20;96804.22;10417639;28;3145;-45
2023/01/23 23:36:37;;;;;;;;;;;;;;;18.52;28.22;96791.56;10417239;28;3176;-47
2023/01/23 23:41:37;;;;;;;;;;;;;;;18.49;28.17;96792.84;10418650;28;3082;-49
2023/01/23 23:46:38;;;;;;;;;;;;;;;18.45;28.31;96794.31;10421162;28;3189;-48
2023/01/23 23:51:38;;;;;;;;;;;;;;;18.43;28.23;96798.19;10415453;28;3157;-47
2023/01/23 23:56:38;;;;;;;;;;;;;;;18.40;28.38;96796.03;10413016;28;3166;-46
